Terminal Aerodrome Forecast
Issued by NWS

Home | Current Version | Previous Version | Graphics & Text | Print | Product List | Glossary On
Versions: 1 2 3 4 5 6 7 8 9 10 11 12 13 14 15 16 17 18 19 20 21 22 23 24 25 26
378
FTUS45 KGGW 230520
TAFGDV
TAF
KGDV 230520Z 2306/2406 32022KT P6SM BKN030
     FM230900 31013KT P6SM SCT050
     FM231800 31021G29KT P6SM FEW070
     FM240200 33011KT P6SM FEW100=

USA.gov is the U.S. government's official web portal to all federal, state and local government web resources and services.